createdAt,value
2023-03-06T00:01:00.713Z,98942.94
2023-03-06T00:03:29.017Z,98954.19
2023-03-06T00:05:58.895Z,98957.72
2023-03-06T00:08:29.105Z,98956.38
2023-03-06T00:10:57.659Z,98952.63
2023-03-06T00:13:30.265Z,98953.81
2023-03-06T00:16:03.201Z,98951.88
2023-03-06T00:18:30.860Z,98953.72
2023-03-06T00:20:58.337Z,98948.41
2023-03-06T00:23:46.846Z,98952.75
2023-03-06T00:26:14.507Z,98954.97
2023-03-06T00:28:42.970Z,98959.28
2023-03-06T00:31:10.451Z,98950.59
2023-03-06T00:33:37.931Z,98956.38
2023-03-06T00:36:08.737Z,98969.25
2023-03-06T00:38:37.282Z,98972.78
2023-03-06T00:41:10.608Z,98973.72
2023-03-06T00:43:38.208Z,98967.69
2023-03-06T00:46:08.522Z,98973.03
2023-03-06T00:48:36.121Z,98974.22
2023-03-06T00:51:04.066Z,98982.16
2023-03-06T00:53:31.719Z,98977.38
2023-03-06T00:55:59.263Z,98972.78
2023-03-06T00:58:26.733Z,98969.13
2023-03-06T01:00:56.675Z,98978.66
2023-03-06T01:03:24.197Z,98976.66
2023-03-06T01:05:53.435Z,98979.94
2023-03-06T01:08:20.878Z,98977.03
2023-03-06T01:10:48.353Z,98983.88
2023-03-06T01:13:17.157Z,98974.25
2023-03-06T01:15:44.682Z,98982.63
2023-03-06T01:18:12.193Z,98989.75
2023-03-06T01:20:39.796Z,98984.16
2023-03-06T01:23:07.283Z,98985.81
2023-03-06T01:25:34.890Z,98983.50
2023-03-06T01:28:02.375Z,98978.00
2023-03-06T01:30:29.859Z,98984.38
2023-03-06T01:32:57.456Z,98981.28
2023-03-06T01:35:26.529Z,98980.22
2023-03-06T01:37:54.083Z,98974.25
2023-03-06T01:40:21.713Z,98971.44
2023-03-06T01:42:50.692Z,98976.47
2023-03-06T01:45:18.184Z,98987.38
2023-03-06T01:47:45.699Z,98982.63
2023-03-06T01:50:13.835Z,98985.34
2023-03-06T01:52:52.459Z,98988.59
2023-03-06T01:55:28.498Z,98981.00
2023-03-06T01:58:02.916Z,98998.72
2023-03-06T02:00:33.263Z,98985.13
2023-03-06T02:03:11.115Z,98987.63
2023-03-06T02:05:41.944Z,98993.03
2023-03-06T02:08:13.374Z,98986.72
2023-03-06T02:11:12.526Z,98994.34
2023-03-06T02:13:42.792Z,98990.09
2023-03-06T02:16:13.422Z,98998.69
2023-03-06T02:18:43.276Z,98992.19
2023-03-06T02:21:20.965Z,99002.41
2023-03-06T02:24:13.820Z,99005.38
2023-03-06T02:26:43.139Z,98995.91
2023-03-06T02:29:10.878Z,99002.59
2023-03-06T02:31:38.674Z,99000.38
2023-03-06T02:34:31.137Z,99002.81
2023-03-06T02:37:09.669Z,99007.41
2023-03-06T02:39:43.360Z,99006.41
2023-03-06T02:42:18.860Z,99010.94
2023-03-06T02:44:46.868Z,99017.03
2023-03-06T02:47:14.520Z,99007.16
2023-03-06T02:49:42.013Z,99012.78
2023-03-06T02:52:10.170Z,99008.06
2023-03-06T02:54:40.159Z,99018.91
2023-03-06T02:57:08.351Z,99018.16
2023-03-06T02:59:36.520Z,99020.19
2023-03-06T03:02:06.150Z,99020.69
2023-03-06T03:04:35.267Z,99020.56
2023-03-06T03:07:03.898Z,99015.19
2023-03-06T03:09:36.918Z,99015.00
2023-03-06T03:12:08.426Z,99017.25
2023-03-06T03:14:36.088Z,99015.34
2023-03-06T03:17:04.666Z,99012.06
2023-03-06T03:19:32.381Z,99016.22
2023-03-06T03:22:00.136Z,99014.69
2023-03-06T03:24:28.395Z,99013.81
2023-03-06T03:26:56.122Z,99016.75
2023-03-06T03:29:25.278Z,99013.63
2023-03-06T03:31:53.577Z,99012.00
2023-03-06T03:34:23.302Z,99017.53
2023-03-06T03:36:50.829Z,99025.91
2023-03-06T03:39:18.851Z,99027.28
2023-03-06T03:41:47.155Z,99026.88
2023-03-06T03:44:14.706Z,99029.41
2023-03-06T03:46:42.314Z,99038.22
2023-03-06T03:49:15.034Z,99041.97
2023-03-06T03:51:44.794Z,99043.06
2023-03-06T03:54:12.340Z,99052.28
2023-03-06T03:56:44.586Z,99048.94
2023-03-06T03:59:18.134Z,99052.03
2023-03-06T04:01:56.656Z,99047.31
2023-03-06T04:04:25.919Z,99044.13
2023-03-06T04:06:53.875Z,99055.06
2023-03-06T04:09:21.487Z,99058.34
2023-03-06T04:11:49.219Z,99063.53
2023-03-06T04:14:16.882Z,99067.78
2023-03-06T04:16:44.447Z,99075.09
2023-03-06T04:19:12.028Z,99075.13
2023-03-06T04:21:40.613Z,99073.75
2023-03-06T04:24:09.802Z,99076.56
2023-03-06T04:26:37.370Z,99082.66
2023-03-06T04:29:06.142Z,99085.63
2023-03-06T04:31:34.247Z,99084.41
2023-03-06T04:34:02.012Z,99092.06
2023-03-06T04:36:35.060Z,99087.44
2023-03-06T04:39:07.473Z,99093.47
2023-03-06T04:41:35.744Z,99102.63
2023-03-06T04:44:03.543Z,99095.34
2023-03-06T04:46:31.116Z,99095.03
2023-03-06T04:48:59.960Z,99106.72
2023-03-06T04:51:27.843Z,99110.09
2023-03-06T04:53:55.402Z,99102.97
2023-03-06T04:56:23.318Z,99104.09
2023-03-06T04:58:50.983Z,99103.72
2023-03-06T05:01:18.629Z,99111.56
2023-03-06T05:03:46.353Z,99113.72
2023-03-06T05:06:13.784Z,99120.56
2023-03-06T05:08:41.353Z,99116.44
2023-03-06T05:11:08.843Z,99116.78
2023-03-06T05:13:36.360Z,99120.34
2023-03-06T05:16:06.267Z,99122.13
2023-03-06T05:18:35.014Z,99137.28
2023-03-06T05:21:03.060Z,99134.38
2023-03-06T05:23:32.809Z,99138.22
2023-03-06T05:26:00.979Z,99143.22
2023-03-06T05:28:28.766Z,99145.44
2023-03-06T05:30:56.379Z,99143.41
2023-03-06T05:33:23.908Z,99145.59
2023-03-06T05:35:51.537Z,99157.50
2023-03-06T05:38:19.697Z,99160.78
2023-03-06T05:40:48.138Z,99165.16
2023-03-06T05:43:15.666Z,99162.56
2023-03-06T05:45:43.277Z,99167.59
2023-03-06T05:48:14.069Z,99163.03
2023-03-06T05:50:41.644Z,99173.19
2023-03-06T05:53:09.052Z,99174.72
2023-03-06T05:55:36.522Z,99168.44
2023-03-06T05:58:03.938Z,99181.03
2023-03-06T06:00:31.416Z,99184.47
2023-03-06T06:03:02.236Z,99194.28
2023-03-06T06:05:29.748Z,99187.03
2023-03-06T06:07:57.188Z,99194.19
2023-03-06T06:10:24.653Z,99195.13
2023-03-06T06:12:52.084Z,99194.44
2023-03-06T06:15:19.554Z,99202.22
2023-03-06T06:17:47.025Z,99201.38
2023-03-06T06:20:14.913Z,99203.06
2023-03-06T06:22:42.488Z,99203.97
2023-03-06T06:25:10.163Z,99208.81
2023-03-06T06:27:37.701Z,99213.13
2023-03-06T06:30:07.814Z,99210.81
2023-03-06T06:32:36.003Z,99212.91
2023-03-06T06:35:03.941Z,99215.16
2023-03-06T06:37:32.357Z,99214.53
2023-03-06T06:39:59.782Z,99211.06
2023-03-06T06:42:33.255Z,99223.53
2023-03-06T06:45:05.237Z,99216.75
2023-03-06T06:47:34.352Z,99224.28
2023-03-06T06:50:01.961Z,99221.78
2023-03-06T06:52:29.493Z,99224.09
2023-03-06T06:54:57.135Z,99225.97
2023-03-06T06:57:24.609Z,99225.56
2023-03-06T06:59:54.593Z,99225.94
2023-03-06T07:02:22.393Z,99232.88
2023-03-06T07:05:03.128Z,99231.56
2023-03-06T07:07:37.200Z,99240.81
2023-03-06T07:10:10.886Z,99241.34
2023-03-06T07:12:38.486Z,99239.00
2023-03-06T07:15:08.321Z,99239.25
2023-03-06T07:17:35.789Z,99237.06
2023-03-06T07:20:04.462Z,99239.50
2023-03-06T07:22:38.713Z,99238.66
2023-03-06T07:25:16.721Z,99245.59
2023-03-06T07:27:48.794Z,99249.84
2023-03-06T07:30:20.846Z,99250.53
2023-03-06T07:32:48.333Z,99243.81
2023-03-06T07:35:20.928Z,99258.50
2023-03-06T07:37:48.750Z,99254.09
2023-03-06T07:40:16.460Z,99250.84
2023-03-06T07:42:44.076Z,99258.97
2023-03-06T07:45:14.126Z,99261.97
2023-03-06T07:47:42.305Z,99257.97
2023-03-06T07:50:10.843Z,99259.94
2023-03-06T07:52:38.360Z,99268.59
2023-03-06T07:55:06.717Z,99264.78
2023-03-06T07:57:34.173Z,99261.25
2023-03-06T08:00:01.710Z,99269.44
2023-03-06T08:02:29.224Z,99265.09
2023-03-06T08:04:57.277Z,99272.69
2023-03-06T08:07:24.765Z,99273.88
2023-03-06T08:09:52.405Z,99260.16
2023-03-06T08:12:20.101Z,99265.59
2023-03-06T08:14:47.621Z,99270.38
2023-03-06T08:17:15.220Z,99266.06
2023-03-06T08:19:42.728Z,99264.38
2023-03-06T08:22:11.247Z,99268.66
2023-03-06T08:24:38.812Z,99264.66
2023-03-06T08:27:06.424Z,99269.50
2023-03-06T08:29:33.892Z,99273.53
2023-03-06T08:32:01.545Z,99268.59
2023-03-06T08:34:29.202Z,99265.50
2023-03-06T08:36:56.705Z,99269.47
2023-03-06T08:39:24.251Z,99264.22
2023-03-06T08:41:51.897Z,99260.97
2023-03-06T08:44:19.392Z,99252.00
2023-03-06T08:46:48.002Z,99256.72
2023-03-06T08:49:15.587Z,99257.28
2023-03-06T08:51:43.192Z,99252.66
2023-03-06T08:54:13.693Z,99251.84
2023-03-06T08:56:41.170Z,99247.97
2023-03-06T08:59:09.461Z,99249.84
2023-03-06T09:01:38.427Z,99253.25
2023-03-06T09:04:12.162Z,99247.84
2023-03-06T09:06:42.646Z,99254.84
2023-03-06T09:09:10.267Z,99247.28
2023-03-06T09:11:38.134Z,99242.69
2023-03-06T09:14:06.868Z,99237.53
2023-03-06T09:16:34.560Z,99242.44
2023-03-06T09:19:02.128Z,99240.63
2023-03-06T09:21:29.750Z,99231.09
2023-03-06T09:23:57.502Z,99236.81
2023-03-06T09:26:39.702Z,99233.53
2023-03-06T09:29:16.386Z,99231.78
2023-03-06T09:31:45.080Z,99228.63
2023-03-06T09:34:12.769Z,99226.94
2023-03-06T09:36:55.311Z,99232.56
2023-03-06T09:39:27.223Z,99233.66
2023-03-06T09:41:57.487Z,99233.50
2023-03-06T09:44:33.403Z,99228.25
2023-03-06T09:47:45.007Z,99230.72
2023-03-06T09:50:30.040Z,99232.38
2023-03-06T09:53:49.495Z,99225.50
2023-03-06T09:56:30.137Z,99216.78
2023-03-06T09:59:17.372Z,99219.00
2023-03-06T10:02:01.920Z,99226.69
2023-03-06T10:04:52.463Z,99221.59
2023-03-06T10:07:27.530Z,99215.84
2023-03-06T10:10:01.340Z,99208.69
2023-03-06T10:12:39.178Z,99211.25
2023-03-06T10:15:19.724Z,99211.41
2023-03-06T10:17:47.551Z,99210.50
2023-03-06T10:20:28.575Z,99207.16
2023-03-06T10:23:24.970Z,99204.97
2023-03-06T10:26:24.655Z,99195.59
2023-03-06T10:29:27.561Z,99200.19
2023-03-06T10:32:11.366Z,99193.69
2023-03-06T10:34:40.092Z,99193.34
2023-03-06T10:37:23.016Z,99190.78
2023-03-06T10:40:03.827Z,99186.69
2023-03-06T10:42:31.456Z,99178.66
2023-03-06T10:45:29.929Z,99176.38
2023-03-06T10:48:14.962Z,99172.91
2023-03-06T10:50:43.587Z,99169.66
2023-03-06T10:53:22.893Z,99156.03
2023-03-06T10:55:59.946Z,99160.13
2023-03-06T10:58:32.742Z,99163.41
2023-03-06T11:01:26.562Z,99161.78
2023-03-06T11:03:54.212Z,99153.88
2023-03-06T11:06:35.128Z,99156.56
2023-03-06T11:09:24.229Z,99138.81
2023-03-06T11:12:20.280Z,99134.16
2023-03-06T11:14:47.924Z,99136.38
2023-03-06T11:17:32.126Z,99125.09
2023-03-06T11:20:23.836Z,99118.19
2023-03-06T11:23:13.946Z,99120.13
2023-03-06T11:26:13.619Z,99120.41
2023-03-06T11:29:29.330Z,99115.94
2023-03-06T11:32:12.765Z,99115.09
2023-03-06T11:34:58.143Z,99103.63
2023-03-06T11:37:54.662Z,99100.88
2023-03-06T11:40:37.508Z,99101.59
2023-03-06T11:43:23.456Z,99096.63
2023-03-06T11:46:07.653Z,99096.56
2023-03-06T11:49:01.721Z,99096.00
2023-03-06T11:51:43.448Z,99098.06
2023-03-06T11:54:14.285Z,99091.13
2023-03-06T11:57:02.261Z,99085.72
2023-03-06T11:59:55.566Z,99076.72
2023-03-06T12:02:26.792Z,99078.66
2023-03-06T12:05:18.371Z,99076.19
2023-03-06T12:08:21.085Z,99063.47
2023-03-06T12:11:15.165Z,99060.38
2023-03-06T12:14:27.208Z,99059.06
2023-03-06T12:17:31.316Z,99047.94
2023-03-06T12:20:23.108Z,99045.44
2023-03-06T12:23:23.623Z,99040.19
2023-03-06T12:26:18.658Z,99037.88
2023-03-06T12:29:16.364Z,99036.75
2023-03-06T12:32:17.038Z,99030.69
2023-03-06T12:35:26.283Z,99029.91
2023-03-06T12:38:37.462Z,99021.84
2023-03-06T12:41:31.257Z,99013.53
2023-03-06T12:44:20.520Z,99011.66
2023-03-06T12:46:57.123Z,99011.25
2023-03-06T12:49:32.488Z,99016.63
2023-03-06T12:52:01.441Z,99005.22
2023-03-06T12:54:37.830Z,99015.00
2023-03-06T12:57:08.845Z,98997.63
2023-03-06T12:59:50.108Z,99007.81
2023-03-06T13:03:07.299Z,98991.44
2023-03-06T13:06:00.532Z,98999.63
2023-03-06T13:09:12.264Z,98986.09
2023-03-06T13:11:58.606Z,98988.75
2023-03-06T13:14:42.281Z,98989.91
2023-03-06T13:17:25.511Z,98989.09
2023-03-06T13:20:35.603Z,98987.56
2023-03-06T13:23:35.556Z,98992.00
2023-03-06T13:26:05.822Z,98987.03
2023-03-06T13:31:34.023Z,98985.94
2023-03-06T13:34:39.336Z,98991.47
2023-03-06T13:37:19.939Z,98990.34
2023-03-06T13:39:56.807Z,98979.50
2023-03-06T13:42:32.413Z,98983.03
2023-03-06T13:45:26.095Z,98982.63
2023-03-06T13:48:27.292Z,98974.34
2023-03-06T13:50:47.500Z,98974.28
2023-03-06T13:53:40.801Z,98972.41
2023-03-06T13:56:51.408Z,98975.63
2023-03-06T13:59:34.672Z,98971.59
2023-03-06T14:02:38.822Z,98969.91
2023-03-06T14:05:17.840Z,98966.69
2023-03-06T14:07:48.535Z,98966.84
2023-03-06T14:10:21.883Z,98964.56
2023-03-06T14:12:57.568Z,98966.94
2023-03-06T14:15:34.815Z,98974.34
2023-03-06T14:18:08.111Z,98966.69
2023-03-06T14:21:03.543Z,98964.31
2023-03-06T14:23:42.660Z,98962.75
2023-03-06T14:26:19.374Z,98959.09
2023-03-06T14:28:52.651Z,98956.41
2023-03-06T14:31:38.081Z,98966.69
2023-03-06T14:34:28.947Z,98961.41
2023-03-06T14:37:02.065Z,98957.22
2023-03-06T14:39:39.175Z,98958.34
2023-03-06T14:42:30.338Z,98944.81
2023-03-06T14:45:17.140Z,98942.63
2023-03-06T14:47:50.929Z,98945.69
2023-03-06T14:50:34.438Z,98950.75
2023-03-06T14:53:26.084Z,98943.94
2023-03-06T14:56:05.700Z,98939.00
2023-03-06T14:59:02.817Z,98941.16
2023-03-06T15:01:39.441Z,98945.72
2023-03-06T15:04:40.185Z,98934.56
2023-03-06T15:07:13.553Z,98932.94
2023-03-06T15:09:50.994Z,98927.34
2023-03-06T15:12:21.255Z,98922.47
2023-03-06T15:15:04.200Z,98927.09
2023-03-06T15:17:40.451Z,98916.44
2023-03-06T15:20:46.822Z,98918.63
2023-03-06T15:23:26.848Z,98917.59
2023-03-06T15:26:03.815Z,98918.44
2023-03-06T15:28:37.219Z,98919.19
2023-03-06T15:31:21.082Z,98916.75
2023-03-06T15:34:06.914Z,98925.44
2023-03-06T15:36:54.770Z,98919.38
2023-03-06T15:39:41.569Z,98913.59
2023-03-06T15:42:19.163Z,98929.81
2023-03-06T15:44:56.190Z,98925.31
2023-03-06T15:47:24.535Z,98923.59
2023-03-06T15:49:53.304Z,98914.88
2023-03-06T15:52:24.680Z,98924.47
2023-03-06T15:54:52.309Z,98929.22
2023-03-06T15:57:26.544Z,98924.47
2023-03-06T15:59:56.048Z,98929.50
2023-03-06T16:02:25.209Z,98923.38
2023-03-06T16:04:53.521Z,98931.66
2023-03-06T16:07:23.670Z,98938.81
2023-03-06T16:09:51.499Z,98935.91
2023-03-06T16:12:21.758Z,98933.69
2023-03-06T16:14:50.140Z,98937.06
2023-03-06T16:17:17.867Z,98937.78
2023-03-06T16:19:45.523Z,98939.94
2023-03-06T16:22:13.771Z,98946.69
2023-03-06T16:24:41.814Z,98942.94
2023-03-06T16:27:28.680Z,98949.66
2023-03-06T16:29:56.278Z,98951.44
2023-03-06T16:32:28.619Z,98954.50
2023-03-06T16:34:56.256Z,98945.59
2023-03-06T16:37:26.697Z,98946.13
2023-03-06T16:39:54.357Z,98947.03
2023-03-06T16:42:24.390Z,98954.28
2023-03-06T16:44:51.818Z,98953.53
2023-03-06T16:47:19.315Z,98959.16
2023-03-06T16:49:47.261Z,98957.09
2023-03-06T16:52:15.137Z,98954.66
2023-03-06T16:54:44.673Z,98955.59
2023-03-06T16:57:18.102Z,98960.25
2023-03-06T16:59:51.460Z,98955.50
2023-03-06T17:02:18.984Z,98961.19
2023-03-06T17:04:46.945Z,98951.25
2023-03-06T17:07:14.561Z,98952.84
2023-03-06T17:09:42.009Z,98960.22
2023-03-06T17:12:09.982Z,98955.53
2023-03-06T17:14:38.476Z,98966.81
2023-03-06T17:17:06.120Z,98961.59
2023-03-06T17:19:33.761Z,98961.59
2023-03-06T17:22:01.201Z,98957.94
2023-03-06T17:24:30.351Z,98961.16
2023-03-06T17:26:57.942Z,98971.03
2023-03-06T17:29:25.448Z,98964.91
2023-03-06T17:31:53.817Z,98960.78
2023-03-06T17:34:23.630Z,98964.06
2023-03-06T17:36:52.251Z,98959.91
2023-03-06T17:39:20.238Z,98958.59
2023-03-06T17:41:47.703Z,98953.13
2023-03-06T17:44:19.760Z,98946.03
2023-03-06T17:47:15.731Z,98949.00
2023-03-06T17:49:43.424Z,98952.53
2023-03-06T17:52:11.488Z,98951.91
2023-03-06T17:54:41.836Z,98948.16
2023-03-06T17:57:11.415Z,98955.16
2023-03-06T17:59:40.434Z,98957.34
2023-03-06T18:02:09.919Z,98960.19
2023-03-06T18:04:38.058Z,98962.38
2023-03-06T18:07:08.184Z,98959.53
2023-03-06T18:09:35.860Z,98957.47
2023-03-06T18:12:04.329Z,98954.25
2023-03-06T18:14:31.853Z,98957.56
2023-03-06T18:16:59.452Z,98961.69
2023-03-06T18:19:28.431Z,98956.88
2023-03-06T18:21:57.217Z,98956.88
2023-03-06T18:24:24.786Z,98967.41
2023-03-06T18:26:53.542Z,98962.66
2023-03-06T18:29:22.154Z,98963.31
2023-03-06T18:31:50.429Z,98960.03
2023-03-06T18:34:19.665Z,98966.59
2023-03-06T18:36:52.692Z,98963.38
2023-03-06T18:39:22.310Z,98965.31
2023-03-06T18:41:49.927Z,98965.31
2023-03-06T18:44:21.348Z,98957.47
2023-03-06T18:46:51.510Z,98953.41
2023-03-06T18:49:19.568Z,98950.09
2023-03-06T18:51:50.970Z,98954.03
2023-03-06T18:54:22.656Z,98949.34
2023-03-06T18:56:55.414Z,98949.84
2023-03-06T18:59:28.350Z,98952.81
2023-03-06T19:01:57.819Z,98957.91
2023-03-06T19:04:28.490Z,98951.06
2023-03-06T19:06:58.096Z,98953.63
2023-03-06T19:09:27.945Z,98954.63
2023-03-06T19:12:03.643Z,98945.88
2023-03-06T19:14:33.918Z,98952.81
2023-03-06T19:17:04.277Z,98958.56
2023-03-06T19:19:31.854Z,98960.38
2023-03-06T19:22:01.153Z,98956.53
2023-03-06T19:24:28.774Z,98954.94
2023-03-06T19:26:58.653Z,98952.97
2023-03-06T19:29:27.758Z,98957.75
2023-03-06T19:31:57.683Z,98969.63
2023-03-06T19:34:25.862Z,98966.25
2023-03-06T19:37:14.369Z,98970.78
2023-03-06T19:39:44.825Z,98969.03
2023-03-06T19:42:15.944Z,98967.72
2023-03-06T19:44:45.358Z,98973.63
2023-03-06T19:47:13.949Z,98974.44
2023-03-06T19:49:41.627Z,98979.19
2023-03-06T19:52:09.147Z,98975.63
2023-03-06T19:54:38.137Z,98973.72
2023-03-06T19:57:06.520Z,98979.56
2023-03-06T19:59:34.656Z,98977.53
2023-03-06T20:02:07.569Z,98982.31
2023-03-06T20:04:37.751Z,98972.78
2023-03-06T20:07:06.989Z,98973.09
2023-03-06T20:09:38.378Z,98972.88
2023-03-06T20:12:09.106Z,98968.22
2023-03-06T20:14:39.016Z,98972.19
2023-03-06T20:17:09.383Z,98962.25
2023-03-06T20:19:38.159Z,98965.25
2023-03-06T20:22:05.973Z,98959.44
2023-03-06T20:24:35.124Z,98955.00
2023-03-06T20:27:19.205Z,98957.34
2023-03-06T20:29:47.106Z,98956.16
2023-03-06T20:32:15.967Z,98964.50
2023-03-06T20:34:46.646Z,98972.06
2023-03-06T20:37:17.946Z,98963.75
2023-03-06T20:39:48.057Z,98964.53
2023-03-06T20:42:15.910Z,98960.06
2023-03-06T20:44:43.490Z,98955.47
2023-03-06T20:47:11.052Z,98957.13
2023-03-06T20:49:39.076Z,98959.91
2023-03-06T20:52:06.629Z,98964.53
2023-03-06T20:54:34.116Z,98962.06
2023-03-06T20:57:01.608Z,98956.84
2023-03-06T20:59:30.231Z,98957.91
2023-03-06T21:01:57.980Z,98959.59
2023-03-06T21:04:25.904Z,98962.22
2023-03-06T21:06:54.384Z,98965.28
2023-03-06T21:09:21.900Z,98962.53
2023-03-06T21:11:49.473Z,98959.00
2023-03-06T21:14:19.376Z,98964.69
2023-03-06T21:16:49.599Z,98968.38
2023-03-06T21:19:18.089Z,98964.22
2023-03-06T21:21:45.804Z,98961.59
2023-03-06T21:24:13.758Z,98961.44
2023-03-06T21:26:41.348Z,98962.84
2023-03-06T21:29:09.188Z,98958.38
2023-03-06T21:31:38.678Z,98958.06
2023-03-06T21:34:07.691Z,98956.84
2023-03-06T21:36:35.592Z,98963.13
2023-03-06T21:39:06.245Z,98960.66
2023-03-06T21:41:34.336Z,98964.06
2023-03-06T21:44:06.723Z,98973.91
2023-03-06T21:46:34.817Z,98978.66
2023-03-06T21:49:09.515Z,98966.19
2023-03-06T21:51:38.267Z,98955.00
2023-03-06T21:54:09.695Z,98959.72
2023-03-06T21:56:39.795Z,98951.44
2023-03-06T21:59:07.282Z,98953.13
2023-03-06T22:01:34.823Z,98958.94
2023-03-06T22:04:03.917Z,98970.50
2023-03-06T22:06:32.823Z,98960.94
2023-03-06T22:09:01.645Z,98966.00
2023-03-06T22:11:31.463Z,98961.69
2023-03-06T22:13:59.127Z,98962.78
2023-03-06T22:16:26.645Z,98961.09
2023-03-06T22:18:54.120Z,98961.38
2023-03-06T22:21:23.431Z,98955.09
2023-03-06T22:23:57.401Z,98951.19
2023-03-06T22:26:28.600Z,98945.66
2023-03-06T22:28:56.693Z,98935.97
2023-03-06T22:31:28.460Z,98942.16
2023-03-06T22:33:58.637Z,98950.59
2023-03-06T22:36:27.823Z,98947.06
2023-03-06T22:38:58.652Z,98943.03
2023-03-06T22:41:28.290Z,98949.16
2023-03-06T22:44:01.373Z,98945.44
2023-03-06T22:46:29.826Z,98950.41
2023-03-06T22:49:01.834Z,98957.19
2023-03-06T22:51:30.174Z,98960.97
2023-03-06T22:53:58.196Z,98957.88
2023-03-06T22:56:25.956Z,98952.47
2023-03-06T22:58:53.686Z,98948.94
2023-03-06T23:01:25.318Z,98949.06
2023-03-06T23:03:59.353Z,98948.59
2023-03-06T23:06:31.655Z,98942.31
2023-03-06T23:09:23.575Z,98947.53
2023-03-06T23:12:11.553Z,98948.84
2023-03-06T23:14:57.541Z,98950.09
2023-03-06T23:17:43.785Z,98951.22
2023-03-06T23:20:29.998Z,98957.28
2023-03-06T23:23:15.804Z,98956.19
2023-03-06T23:25:44.547Z,98957.44
2023-03-06T23:28:12.691Z,98964.38
2023-03-06T23:30:41.148Z,98955.53
2023-03-06T23:33:09.572Z,98956.09
2023-03-06T23:35:41.513Z,98956.91
2023-03-06T23:38:09.542Z,98956.13
2023-03-06T23:40:38.966Z,98958.81
2023-03-06T23:43:06.990Z,98954.94
2023-03-06T23:45:34.710Z,98953.22
2023-03-06T23:48:02.162Z,98955.81
2023-03-06T23:50:29.691Z,98949.78
2023-03-06T23:52:57.163Z,98948.66
2023-03-06T23:55:24.698Z,98955.06
2023-03-06T23:57:52.230Z,98951.25
